createdAt,value
2019-01-13T00:00:21.217Z,0
2019-01-13T00:01:19.615Z,0
2019-01-13T00:02:19.595Z,0
2019-01-13T00:03:19.583Z,0
2019-01-13T00:04:19.603Z,0
2019-01-13T00:05:19.560Z,0
2019-01-13T00:06:19.545Z,0
2019-01-13T00:07:19.534Z,0
2019-01-13T00:08:19.520Z,0
2019-01-13T00:09:19.512Z,0
2019-01-13T00:10:19.494Z,0
2019-01-13T00:11:19.484Z,0
2019-01-13T00:12:19.513Z,0
2019-01-13T00:13:19.459Z,0
2019-01-13T00:14:19.745Z,0
2019-01-13T00:15:19.439Z,0
2019-01-13T00:16:19.424Z,0
2019-01-13T00:17:19.411Z,0
2019-01-13T00:18:19.397Z,0
2019-01-13T00:19:19.388Z,0
2019-01-13T00:20:19.379Z,0
2019-01-13T00:21:19.368Z,0
2019-01-13T00:22:19.353Z,0
2019-01-13T00:23:19.360Z,0
2019-01-13T00:24:19.331Z,0
2019-01-13T00:25:19.320Z,0
2019-01-13T00:26:19.314Z,0
2019-01-13T00:27:19.304Z,0
2019-01-13T00:28:19.292Z,0
2019-01-13T00:29:19.264Z,0
2019-01-13T00:30:26.252Z,0
2019-01-13T00:31:19.255Z,0
2019-01-13T00:32:19.233Z,0
2019-01-13T00:33:18.978Z,0
2019-01-13T00:34:19.216Z,0
2019-01-13T00:35:19.200Z,0
2019-01-13T00:36:19.194Z,0
2019-01-13T00:37:19.175Z,0
2019-01-13T00:38:19.162Z,0
2019-01-13T00:39:19.150Z,0
2019-01-13T00:40:19.146Z,0
2019-01-13T00:41:19.134Z,0
2019-01-13T00:42:19.116Z,0
2019-01-13T00:43:19.099Z,0
2019-01-13T00:44:19.085Z,0
2019-01-13T00:45:19.081Z,0
2019-01-13T00:46:19.087Z,0
2019-01-13T00:47:19.055Z,0
2019-01-13T00:48:19.037Z,0
2019-01-13T00:49:19.030Z,0
2019-01-13T00:50:19.015Z,0
2019-01-13T00:51:19.020Z,0
2019-01-13T00:52:18.994Z,0
2019-01-13T00:53:18.984Z,0
2019-01-13T00:54:18.971Z,0
2019-01-13T00:55:18.959Z,0
2019-01-13T00:56:18.955Z,0
2019-01-13T00:57:18.933Z,0
2019-01-13T00:58:18.916Z,0
2019-01-13T00:59:18.914Z,0
2019-01-13T01:00:26.158Z,0
2019-01-13T01:01:18.890Z,0
2019-01-13T01:02:18.869Z,0
2019-01-13T01:03:18.859Z,0
2019-01-13T01:04:18.848Z,0
2019-01-13T01:05:18.835Z,0
2019-01-13T01:06:18.835Z,0
2019-01-13T01:07:18.818Z,0
2019-01-13T01:08:18.803Z,0
2019-01-13T01:09:18.789Z,0
2019-01-13T01:10:18.790Z,0
2019-01-13T01:11:18.759Z,0
2019-01-13T01:12:18.750Z,0
2019-01-13T01:13:18.739Z,0
2019-01-13T01:14:18.735Z,0
2019-01-13T01:15:18.711Z,0
2019-01-13T01:16:18.715Z,0
2019-01-13T01:17:18.686Z,0
2019-01-13T01:18:18.681Z,0
2019-01-13T01:19:18.664Z,0
2019-01-13T01:20:18.647Z,0
2019-01-13T01:21:18.642Z,0
2019-01-13T01:22:18.625Z,0
2019-01-13T01:23:18.618Z,0
2019-01-13T01:24:18.601Z,0
2019-01-13T01:25:18.586Z,0
2019-01-13T01:26:18.582Z,0
2019-01-13T01:27:18.569Z,0
2019-01-13T01:28:18.548Z,0
2019-01-13T01:29:18.550Z,0
2019-01-13T01:30:18.528Z,0
2019-01-13T01:31:18.514Z,0
2019-01-13T01:32:18.506Z,0
2019-01-13T01:33:25.675Z,0
2019-01-13T01:34:18.477Z,0
2019-01-13T01:35:18.468Z,0
2019-01-13T01:36:18.451Z,0
2019-01-13T01:37:18.442Z,0
2019-01-13T01:38:18.429Z,0
2019-01-13T01:39:18.410Z,0
2019-01-13T01:40:18.405Z,0
2019-01-13T01:41:18.390Z,0
2019-01-13T01:42:18.383Z,0
2019-01-13T01:43:18.364Z,0
2019-01-13T01:44:18.354Z,0
2019-01-13T01:45:18.338Z,0
2019-01-13T01:46:18.334Z,0
2019-01-13T01:47:18.319Z,0
2019-01-13T01:48:18.303Z,0
2019-01-13T01:49:18.296Z,0
2019-01-13T01:50:18.277Z,0
2019-01-13T01:51:18.266Z,0
2019-01-13T01:52:18.009Z,0
2019-01-13T01:53:18.236Z,0
2019-01-13T01:54:18.228Z,0
2019-01-13T01:55:18.214Z,0
2019-01-13T01:56:18.202Z,0
2019-01-13T01:57:18.185Z,0
2019-01-13T01:58:18.172Z,0
2019-01-13T01:59:17.923Z,0
2019-01-13T02:00:18.154Z,0
2019-01-13T02:01:18.140Z,0
2019-01-13T02:02:17.934Z,0
2019-01-13T02:03:18.134Z,0
2019-01-13T02:04:18.217Z,0
2019-01-13T02:05:18.158Z,0
2019-01-13T02:06:18.114Z,0
2019-01-13T02:07:18.075Z,0
2019-01-13T02:08:17.893Z,0
2019-01-13T02:09:18.038Z,0
2019-01-13T02:10:18.032Z,0
2019-01-13T02:11:18.012Z,0
2019-01-13T02:12:17.999Z,0
2019-01-13T02:13:17.991Z,0
2019-01-13T02:14:17.978Z,0
2019-01-13T02:15:17.962Z,0
2019-01-13T02:16:17.950Z,0
2019-01-13T02:17:17.942Z,0
2019-01-13T02:18:17.936Z,0
2019-01-13T02:19:17.918Z,0
2019-01-13T02:20:17.894Z,0
2019-01-13T02:21:17.891Z,0
2019-01-13T02:22:17.871Z,0
2019-01-13T02:23:17.864Z,0
2019-01-13T02:24:17.605Z,0
2019-01-13T02:25:17.838Z,0
2019-01-13T02:26:19.170Z,0
2019-01-13T02:27:17.815Z,0
2019-01-13T02:28:17.580Z,0
2019-01-13T02:29:17.784Z,0
2019-01-13T02:30:17.799Z,0
2019-01-13T02:31:17.770Z,0
2019-01-13T02:32:17.768Z,0
2019-01-13T02:33:17.763Z,0
2019-01-13T02:34:17.758Z,0
2019-01-13T02:35:17.733Z,0
2019-01-13T02:36:17.724Z,0
2019-01-13T02:37:17.699Z,0
2019-01-13T02:38:17.670Z,0
2019-01-13T02:39:17.704Z,0
2019-01-13T02:40:17.655Z,0
2019-01-13T02:41:17.644Z,0
2019-01-13T02:42:17.643Z,0
2019-01-13T02:43:17.620Z,0
2019-01-13T02:44:17.603Z,0
2019-01-13T02:45:17.594Z,0
2019-01-13T02:46:17.585Z,0
2019-01-13T02:47:17.563Z,0
2019-01-13T02:48:17.309Z,0
2019-01-13T02:49:17.541Z,0
2019-01-13T02:50:17.539Z,0
2019-01-13T02:51:17.529Z,0
2019-01-13T02:52:17.508Z,0
2019-01-13T02:53:17.490Z,0
2019-01-13T02:54:17.538Z,0
2019-01-13T02:55:17.459Z,0
2019-01-13T02:56:17.459Z,0
2019-01-13T02:57:17.440Z,0
2019-01-13T02:58:17.427Z,0
2019-01-13T02:59:17.423Z,0
2019-01-13T03:00:17.410Z,0
2019-01-13T03:01:17.389Z,0
2019-01-13T03:02:17.842Z,0
2019-01-13T03:03:17.386Z,0
2019-01-13T03:04:17.357Z,0
2019-01-13T03:05:17.346Z,0
2019-01-13T03:06:17.326Z,0
2019-01-13T03:07:17.321Z,0
2019-01-13T03:08:17.308Z,0
2019-01-13T03:09:17.296Z,0
2019-01-13T03:10:17.283Z,0
2019-01-13T03:11:17.277Z,0
2019-01-13T03:12:17.259Z,0
2019-01-13T03:13:17.249Z,0
2019-01-13T03:14:17.235Z,0
2019-01-13T03:15:24.172Z,0
2019-01-13T03:16:17.205Z,0
2019-01-13T03:17:17.192Z,0
2019-01-13T03:18:17.179Z,0
2019-01-13T03:19:17.196Z,0
2019-01-13T03:20:17.162Z,0
2019-01-13T03:21:17.156Z,0
2019-01-13T03:22:17.135Z,0
2019-01-13T03:23:17.122Z,0
2019-01-13T03:24:17.169Z,0
2019-01-13T03:25:18.863Z,0
2019-01-13T03:26:17.083Z,0
2019-01-13T03:27:17.077Z,0
2019-01-13T03:28:17.063Z,0
2019-01-13T03:29:16.827Z,0
2019-01-13T03:30:17.057Z,0
2019-01-13T03:31:21.756Z,0
2019-01-13T03:32:17.035Z,0
2019-01-13T03:33:17.019Z,0
2019-01-13T03:34:16.986Z,0
2019-01-13T03:35:16.980Z,0
2019-01-13T03:36:16.958Z,0
2019-01-13T03:37:16.980Z,0
2019-01-13T03:38:16.942Z,0
2019-01-13T03:39:16.926Z,0
2019-01-13T03:40:16.908Z,0
2019-01-13T03:41:16.904Z,0
2019-01-13T03:42:16.885Z,0
2019-01-13T03:43:16.879Z,0
2019-01-13T03:44:16.864Z,0
2019-01-13T03:45:16.848Z,0
2019-01-13T03:46:16.837Z,0
2019-01-13T03:47:16.831Z,0
2019-01-13T03:48:16.810Z,0
2019-01-13T03:49:16.807Z,0
2019-01-13T03:50:16.791Z,0
2019-01-13T03:51:16.560Z,0
2019-01-13T03:52:16.770Z,0
2019-01-13T03:53:16.762Z,0
2019-01-13T03:54:16.734Z,0
2019-01-13T03:55:16.730Z,0
2019-01-13T03:56:16.726Z,0
2019-01-13T03:57:16.698Z,0
2019-01-13T03:58:18.358Z,0
2019-01-13T03:59:16.728Z,0
2019-01-13T04:00:16.666Z,0
2019-01-13T04:01:23.417Z,0
2019-01-13T04:02:16.645Z,0
2019-01-13T04:03:16.632Z,0
2019-01-13T04:04:16.615Z,0
2019-01-13T04:05:16.661Z,0
2019-01-13T04:06:16.599Z,0
2019-01-13T04:07:16.589Z,0
2019-01-13T04:08:16.560Z,0
2019-01-13T04:09:16.576Z,0
2019-01-13T04:10:16.544Z,0
2019-01-13T04:11:16.537Z,0
2019-01-13T04:12:16.522Z,0
2019-01-13T04:13:16.514Z,0
2019-01-13T04:14:16.491Z,0
2019-01-13T04:15:16.477Z,0
2019-01-13T04:16:16.470Z,0
2019-01-13T04:17:16.449Z,0
2019-01-13T04:18:16.442Z,0
2019-01-13T04:19:16.426Z,0
2019-01-13T04:20:16.415Z,0
2019-01-13T04:21:16.410Z,0
2019-01-13T04:22:16.396Z,0
2019-01-13T04:23:16.383Z,0
2019-01-13T04:24:16.365Z,0
2019-01-13T04:25:16.351Z,0
2019-01-13T04:26:16.342Z,0
2019-01-13T04:27:16.327Z,0
2019-01-13T04:28:16.313Z,0
2019-01-13T04:29:16.304Z,0
2019-01-13T04:30:16.295Z,0
2019-01-13T04:31:16.288Z,0
2019-01-13T04:32:16.343Z,0
2019-01-13T04:33:16.278Z,0
2019-01-13T04:34:16.252Z,0
2019-01-13T04:35:16.245Z,0
2019-01-13T04:36:16.215Z,0
2019-01-13T04:37:16.209Z,0
2019-01-13T04:38:16.189Z,0
2019-01-13T04:39:16.174Z,0
2019-01-13T04:40:16.197Z,0
2019-01-13T04:41:16.163Z,0
2019-01-13T04:42:16.147Z,0
2019-01-13T04:43:16.130Z,0
2019-01-13T04:44:16.119Z,0
2019-01-13T04:45:16.101Z,0
2019-01-13T04:46:16.095Z,0
2019-01-13T04:47:16.090Z,0
2019-01-13T04:48:16.093Z,0
2019-01-13T04:49:16.053Z,0
2019-01-13T04:50:16.042Z,0
2019-01-13T04:51:16.036Z,0
2019-01-13T04:52:16.016Z,0
2019-01-13T04:53:16.006Z,0
2019-01-13T04:54:15.992Z,0
2019-01-13T04:55:15.989Z,0
2019-01-13T04:56:15.972Z,0
2019-01-13T04:57:15.954Z,0
2019-01-13T04:58:15.992Z,0
2019-01-13T04:59:15.935Z,0
2019-01-13T05:00:15.933Z,0
2019-01-13T05:01:15.913Z,0
2019-01-13T05:02:15.898Z,0
2019-01-13T05:03:15.906Z,0
2019-01-13T05:04:15.869Z,0
2019-01-13T05:05:15.869Z,0
2019-01-13T05:06:15.850Z,0
2019-01-13T05:07:15.835Z,0
2019-01-13T05:08:15.918Z,0
2019-01-13T05:09:15.828Z,0
2019-01-13T05:10:15.789Z,0
2019-01-13T05:11:15.814Z,0
2019-01-13T05:12:15.771Z,0
2019-01-13T05:13:15.768Z,0
2019-01-13T05:14:15.745Z,0
2019-01-13T05:15:15.754Z,0
2019-01-13T05:16:15.722Z,0
2019-01-13T05:17:15.707Z,0
2019-01-13T05:18:15.706Z,0
2019-01-13T05:19:15.682Z,0
2019-01-13T05:20:15.673Z,0
2019-01-13T05:21:15.668Z,0
2019-01-13T05:22:15.654Z,0
2019-01-13T05:23:15.643Z,0
2019-01-13T05:24:15.636Z,0
2019-01-13T05:25:15.608Z,0
2019-01-13T05:26:15.592Z,0
2019-01-13T05:27:15.581Z,0
2019-01-13T05:28:15.574Z,0
2019-01-13T05:29:15.561Z,0
2019-01-13T05:30:15.557Z,0
2019-01-13T05:31:15.536Z,0
2019-01-13T05:32:15.521Z,0
2019-01-13T05:33:15.525Z,0
2019-01-13T05:34:15.499Z,0
2019-01-13T05:35:15.485Z,0
2019-01-13T05:36:15.478Z,0
2019-01-13T05:37:15.482Z,0
2019-01-13T05:38:15.456Z,0
2019-01-13T05:39:15.447Z,0
2019-01-13T05:40:15.427Z,0
2019-01-13T05:41:15.426Z,0
2019-01-13T05:42:15.404Z,0
2019-01-13T05:43:15.385Z,0
2019-01-13T05:44:15.382Z,0
2019-01-13T05:45:15.373Z,0
2019-01-13T05:46:15.121Z,0
2019-01-13T05:47:15.344Z,0
2019-01-13T05:48:15.328Z,0
2019-01-13T05:49:15.311Z,0
2019-01-13T05:50:15.297Z,0
2019-01-13T05:51:15.295Z,0
2019-01-13T05:52:15.273Z,0
2019-01-13T05:53:15.264Z,0
2019-01-13T05:54:15.254Z,0
2019-01-13T05:55:15.240Z,0
2019-01-13T05:56:15.229Z,0
2019-01-13T05:57:15.217Z,0
2019-01-13T05:58:15.209Z,0
2019-01-13T05:59:14.945Z,0
2019-01-13T06:00:15.175Z,0
2019-01-13T06:01:15.180Z,0
2019-01-13T06:02:15.150Z,0
2019-01-13T06:03:15.137Z,0
2019-01-13T06:04:15.127Z,0
2019-01-13T06:05:15.116Z,0
2019-01-13T06:06:15.101Z,0
2019-01-13T06:07:16.079Z,0
2019-01-13T06:08:15.082Z,0
2019-01-13T06:09:15.072Z,0
2019-01-13T06:10:15.056Z,0
2019-01-13T06:11:15.041Z,0
2019-01-13T06:12:15.025Z,0
2019-01-13T06:13:15.013Z,0
2019-01-13T06:14:14.999Z,0
2019-01-13T06:15:14.997Z,0
2019-01-13T06:16:14.978Z,0
2019-01-13T06:17:14.975Z,0
2019-01-13T06:18:14.955Z,0
2019-01-13T06:19:14.944Z,0
2019-01-13T06:20:14.925Z,0
2019-01-13T06:21:14.915Z,0
2019-01-13T06:22:14.923Z,0
2019-01-13T06:23:14.894Z,0
2019-01-13T06:24:16.459Z,0
2019-01-13T06:25:14.893Z,0
2019-01-13T06:26:14.857Z,0
2019-01-13T06:27:14.838Z,0
2019-01-13T06:28:14.828Z,0
2019-01-13T06:29:14.817Z,0
2019-01-13T06:30:16.079Z,0
2019-01-13T06:31:14.794Z,0
2019-01-13T06:32:14.783Z,0
2019-01-13T06:33:14.769Z,0
2019-01-13T06:34:14.758Z,0
2019-01-13T06:35:14.751Z,0
2019-01-13T06:36:14.746Z,0
2019-01-13T06:37:14.729Z,0
2019-01-13T06:38:15.795Z,0
2019-01-13T06:39:14.704Z,0
2019-01-13T06:40:14.443Z,0
2019-01-13T06:41:14.671Z,0
2019-01-13T06:42:14.669Z,0
2019-01-13T06:43:14.640Z,0
2019-01-13T06:44:14.629Z,0
2019-01-13T06:45:14.623Z,0
2019-01-13T06:46:14.611Z,0
2019-01-13T06:47:14.594Z,0
2019-01-13T06:48:14.616Z,0
2019-01-13T06:49:14.574Z,0
2019-01-13T06:50:14.563Z,0
2019-01-13T06:51:14.310Z,0
2019-01-13T06:52:14.539Z,0
2019-01-13T06:53:14.530Z,0
2019-01-13T06:54:14.510Z,0
2019-01-13T06:55:14.500Z,0
2019-01-13T06:56:14.499Z,0
2019-01-13T06:57:14.477Z,0
2019-01-13T06:58:14.473Z,0
2019-01-13T06:59:14.463Z,0
2019-01-13T07:00:14.449Z,0
2019-01-13T07:01:14.431Z,0
2019-01-13T07:02:14.417Z,0
2019-01-13T07:03:14.408Z,0
2019-01-13T07:04:14.393Z,0
2019-01-13T07:05:14.373Z,0
2019-01-13T07:06:14.369Z,0
2019-01-13T07:07:14.350Z,0
2019-01-13T07:08:14.339Z,0
2019-01-13T07:09:14.332Z,0
2019-01-13T07:10:14.328Z,0
2019-01-13T07:11:14.312Z,0
2019-01-13T07:12:14.297Z,0
2019-01-13T07:13:14.277Z,0
2019-01-13T07:14:14.263Z,0
2019-01-13T07:15:14.265Z,0
2019-01-13T07:16:14.255Z,0
2019-01-13T07:17:14.232Z,0
2019-01-13T07:18:14.270Z,5
2019-01-13T07:19:14.216Z,0
2019-01-13T07:20:14.193Z,5
2019-01-13T07:21:14.181Z,5
2019-01-13T07:22:14.173Z,5
2019-01-13T07:23:14.184Z,5
2019-01-13T07:24:14.142Z,5
2019-01-13T07:25:14.128Z,5
2019-01-13T07:26:14.119Z,5
2019-01-13T07:27:14.105Z,5
2019-01-13T07:28:14.094Z,5
2019-01-13T07:29:14.080Z,5
2019-01-13T07:30:14.072Z,5
2019-01-13T07:31:14.095Z,5
2019-01-13T07:32:19.995Z,5
2019-01-13T07:33:14.036Z,10
2019-01-13T07:34:14.034Z,10
2019-01-13T07:35:14.014Z,10
2019-01-13T07:36:14.003Z,15
2019-01-13T07:37:14.003Z,15
2019-01-13T07:38:13.974Z,15
2019-01-13T07:39:13.731Z,15
2019-01-13T07:40:13.947Z,15
2019-01-13T07:41:13.935Z,15
2019-01-13T07:42:13.925Z,15
2019-01-13T07:43:13.918Z,15
2019-01-13T07:44:13.898Z,20
2019-01-13T07:45:13.890Z,20
2019-01-13T07:46:13.887Z,20
2019-01-13T07:47:13.858Z,20
2019-01-13T07:48:13.853Z,20
2019-01-13T07:49:13.844Z,20
2019-01-13T07:50:13.832Z,20
2019-01-13T07:51:13.819Z,20
2019-01-13T07:52:13.802Z,25
2019-01-13T07:53:13.790Z,20
2019-01-13T07:54:13.839Z,20
2019-01-13T07:55:13.775Z,20
2019-01-13T07:56:13.769Z,20
2019-01-13T07:57:13.751Z,25
2019-01-13T07:58:13.484Z,30
2019-01-13T07:59:13.719Z,25
2019-01-13T08:00:13.706Z,20
2019-01-13T08:01:13.700Z,20
2019-01-13T08:02:20.227Z,20
2019-01-13T08:03:13.676Z,20
2019-01-13T08:04:13.660Z,20
2019-01-13T08:05:13.654Z,20
2019-01-13T08:06:13.644Z,25
2019-01-13T08:07:13.630Z,30
2019-01-13T08:08:13.631Z,25
2019-01-13T08:09:13.611Z,25
2019-01-13T08:10:13.592Z,30
2019-01-13T08:11:13.580Z,30
2019-01-13T08:12:13.569Z,30
2019-01-13T08:13:13.560Z,30
2019-01-13T08:14:13.541Z,35
2019-01-13T08:15:13.534Z,30
2019-01-13T08:16:13.522Z,35
2019-01-13T08:17:13.504Z,45
2019-01-13T08:18:13.503Z,55
2019-01-13T08:19:13.500Z,45
2019-01-13T08:20:13.475Z,40
2019-01-13T08:21:13.467Z,35
2019-01-13T08:22:13.451Z,35
2019-01-13T08:23:13.438Z,35
2019-01-13T08:24:13.423Z,30
2019-01-13T08:25:13.417Z,30
2019-01-13T08:26:13.401Z,35
2019-01-13T08:27:13.392Z,30
2019-01-13T08:28:13.383Z,20
2019-01-13T08:29:13.365Z,25
2019-01-13T08:30:13.356Z,30
2019-01-13T08:31:13.362Z,20
2019-01-13T08:32:13.329Z,20
2019-01-13T08:33:13.324Z,20
2019-01-13T08:34:13.305Z,25
2019-01-13T08:35:13.299Z,30
2019-01-13T08:36:13.291Z,35
2019-01-13T08:37:13.281Z,35
2019-01-13T08:38:13.263Z,40
2019-01-13T08:39:13.263Z,45
2019-01-13T08:40:13.243Z,35
2019-01-13T08:41:13.236Z,50
2019-01-13T08:42:13.219Z,45
2019-01-13T08:43:13.212Z,60
2019-01-13T08:44:13.194Z,60
2019-01-13T08:45:13.182Z,65
2019-01-13T08:46:13.188Z,60
2019-01-13T08:47:13.179Z,55
2019-01-13T08:48:13.150Z,55
2019-01-13T08:49:13.141Z,65
2019-01-13T08:50:13.128Z,65
2019-01-13T08:51:13.112Z,65
2019-01-13T08:52:13.106Z,60
2019-01-13T08:53:13.093Z,65
2019-01-13T08:54:13.081Z,60
2019-01-13T08:55:13.067Z,60
2019-01-13T08:56:13.057Z,50
2019-01-13T08:57:14.544Z,50
2019-01-13T08:58:13.045Z,50
2019-01-13T08:59:12.783Z,45
2019-01-13T09:00:13.011Z,45
2019-01-13T09:01:13.004Z,55
2019-01-13T09:02:12.996Z,45
2019-01-13T09:03:12.988Z,45
2019-01-13T09:04:12.971Z,50
2019-01-13T09:05:12.970Z,50
2019-01-13T09:06:12.956Z,60
2019-01-13T09:07:12.934Z,65
2019-01-13T09:08:12.933Z,55
2019-01-13T09:09:12.912Z,55
2019-01-13T09:10:12.897Z,55
2019-01-13T09:11:12.892Z,45
2019-01-13T09:12:12.875Z,45
2019-01-13T09:13:12.865Z,50
2019-01-13T09:14:12.859Z,55
2019-01-13T09:15:13.441Z,55
2019-01-13T09:16:12.843Z,55
2019-01-13T09:17:12.813Z,55
2019-01-13T09:18:12.803Z,55
2019-01-13T09:19:12.553Z,55
2019-01-13T09:20:12.786Z,65
2019-01-13T09:21:12.779Z,65
2019-01-13T09:22:12.760Z,80
2019-01-13T09:23:12.761Z,70
2019-01-13T09:24:12.740Z,65
2019-01-13T09:25:12.727Z,65
2019-01-13T09:26:12.716Z,60
2019-01-13T09:27:12.724Z,55
2019-01-13T09:28:13.187Z,55
2019-01-13T09:29:12.686Z,55
2019-01-13T09:30:12.669Z,55
2019-01-13T09:31:12.665Z,65
2019-01-13T09:32:12.664Z,65
2019-01-13T09:33:12.793Z,70
2019-01-13T09:34:12.620Z,70
2019-01-13T09:35:12.615Z,70
2019-01-13T09:36:12.607Z,70
2019-01-13T09:37:12.588Z,80
2019-01-13T09:38:13.851Z,70
2019-01-13T09:39:12.580Z,70
2019-01-13T09:40:12.561Z,60
2019-01-13T09:41:12.602Z,65
2019-01-13T09:42:12.545Z,75
2019-01-13T09:43:14.143Z,70
2019-01-13T09:44:12.517Z,70
2019-01-13T09:45:12.508Z,70
2019-01-13T09:46:12.494Z,65
2019-01-13T09:47:12.480Z,60
2019-01-13T09:48:12.479Z,75
2019-01-13T09:49:12.462Z,70
2019-01-13T09:50:12.444Z,65
2019-01-13T09:51:12.504Z,65
2019-01-13T09:52:12.419Z,60
2019-01-13T09:53:12.430Z,70
2019-01-13T09:54:12.420Z,80
2019-01-13T09:55:12.398Z,60
2019-01-13T09:56:12.380Z,70
2019-01-13T09:57:12.394Z,60
2019-01-13T09:58:12.360Z,65
2019-01-13T09:59:12.344Z,75
2019-01-13T10:00:12.330Z,80
2019-01-13T10:01:12.330Z,75
2019-01-13T10:02:12.311Z,75
2019-01-13T10:03:12.323Z,80
2019-01-13T10:04:12.302Z,75
2019-01-13T10:05:12.284Z,70
2019-01-13T10:06:12.295Z,65
2019-01-13T10:07:12.253Z,65
2019-01-13T10:08:12.244Z,75
2019-01-13T10:09:12.234Z,70
2019-01-13T10:10:12.217Z,75
2019-01-13T10:11:12.209Z,85
2019-01-13T10:12:12.197Z,85
2019-01-13T10:13:12.183Z,70
2019-01-13T10:14:12.179Z,70
2019-01-13T10:15:13.806Z,70
2019-01-13T10:16:12.207Z,75
2019-01-13T10:17:12.157Z,100
2019-01-13T10:18:12.138Z,90
2019-01-13T10:19:12.117Z,100
2019-01-13T10:20:12.105Z,110
2019-01-13T10:21:12.120Z,105
2019-01-13T10:22:12.088Z,120
2019-01-13T10:23:12.100Z,105
2019-01-13T10:24:12.068Z,80
2019-01-13T10:25:12.049Z,75
2019-01-13T10:26:11.793Z,100
2019-01-13T10:27:12.032Z,120
2019-01-13T10:28:12.013Z,125
2019-01-13T10:29:12.002Z,130
2019-01-13T10:30:11.991Z,125
2019-01-13T10:31:12.780Z,125
2019-01-13T10:32:11.972Z,100
2019-01-13T10:33:11.967Z,110
2019-01-13T10:34:11.951Z,105
2019-01-13T10:35:11.942Z,110
2019-01-13T10:36:11.925Z,110
2019-01-13T10:37:11.913Z,90
2019-01-13T10:38:11.904Z,95
2019-01-13T10:39:11.897Z,115
2019-01-13T10:40:11.877Z,100
2019-01-13T10:41:11.868Z,145
2019-01-13T10:42:11.856Z,130
2019-01-13T10:43:11.848Z,125
2019-01-13T10:44:11.833Z,145
2019-01-13T10:45:11.829Z,135
2019-01-13T10:46:11.816Z,125
2019-01-13T10:47:11.800Z,115
2019-01-13T10:48:11.803Z,115
2019-01-13T10:49:11.780Z,105
2019-01-13T10:50:11.769Z,95
2019-01-13T10:51:11.758Z,85
2019-01-13T10:52:11.752Z,85
2019-01-13T10:53:11.735Z,85
2019-01-13T10:54:18.675Z,100
2019-01-13T10:55:11.715Z,85
2019-01-13T10:56:11.764Z,70
2019-01-13T10:57:11.455Z,80
2019-01-13T10:58:11.684Z,80
2019-01-13T10:59:11.665Z,75
2019-01-13T11:00:11.657Z,85
2019-01-13T11:01:11.402Z,115
2019-01-13T11:02:11.713Z,110
2019-01-13T11:03:12.292Z,120
2019-01-13T11:04:11.610Z,125
2019-01-13T11:05:11.599Z,140
2019-01-13T11:06:11.596Z,130
2019-01-13T11:07:11.575Z,115
2019-01-13T11:08:18.346Z,100
2019-01-13T11:09:11.568Z,100
2019-01-13T11:10:11.552Z,105
2019-01-13T11:11:11.543Z,115
2019-01-13T11:12:11.527Z,110
2019-01-13T11:13:11.513Z,140
2019-01-13T11:14:11.499Z,125
2019-01-13T11:15:11.492Z,125
2019-01-13T11:16:11.484Z,100
2019-01-13T11:17:11.475Z,100
2019-01-13T11:18:11.458Z,90
2019-01-13T11:19:11.455Z,90
2019-01-13T11:20:11.439Z,90
2019-01-13T11:21:11.427Z,95
2019-01-13T11:22:11.428Z,95
2019-01-13T11:23:11.409Z,115
2019-01-13T11:24:11.911Z,95
2019-01-13T11:25:11.175Z,100
2019-01-13T11:26:11.369Z,100
2019-01-13T11:27:11.357Z,110
2019-01-13T11:28:11.345Z,110
2019-01-13T11:29:11.332Z,90
2019-01-13T11:30:11.976Z,80
2019-01-13T11:31:11.320Z,70
2019-01-13T11:32:11.299Z,75
2019-01-13T11:33:18.764Z,90
2019-01-13T11:34:11.274Z,85
2019-01-13T11:35:11.274Z,100
2019-01-13T11:36:11.258Z,115
2019-01-13T11:37:11.242Z,140
2019-01-13T11:38:11.238Z,145
2019-01-13T11:39:11.223Z,145
2019-01-13T11:40:11.243Z,160
2019-01-13T11:41:11.205Z,125
2019-01-13T11:42:11.189Z,125
2019-01-13T11:43:11.357Z,130
2019-01-13T11:44:11.178Z,140
2019-01-13T11:45:11.155Z,120
2019-01-13T11:46:11.148Z,105
2019-01-13T11:47:11.132Z,120
2019-01-13T11:48:11.143Z,125
2019-01-13T11:49:11.112Z,105
2019-01-13T11:50:11.127Z,120
2019-01-13T11:51:11.102Z,95
2019-01-13T11:52:11.081Z,85
2019-01-13T11:53:11.063Z,85
2019-01-13T11:54:11.057Z,85
2019-01-13T11:55:11.042Z,75
2019-01-13T11:56:11.043Z,85
2019-01-13T11:57:11.023Z,90
2019-01-13T11:58:11.014Z,90
2019-01-13T11:59:11.000Z,95
2019-01-13T12:00:10.756Z,115
2019-01-13T12:01:10.977Z,105
2019-01-13T12:02:10.969Z,120
2019-01-13T12:03:23.813Z,130
2019-01-13T12:04:10.953Z,105
2019-01-13T12:05:11.635Z,110
2019-01-13T12:06:10.933Z,90
2019-01-13T12:07:10.914Z,85
2019-01-13T12:08:10.893Z,85
2019-01-13T12:09:10.884Z,75
2019-01-13T12:10:10.876Z,75
2019-01-13T12:11:10.865Z,80
2019-01-13T12:12:10.858Z,100
2019-01-13T12:13:10.844Z,115
2019-01-13T12:14:10.590Z,95
2019-01-13T12:15:10.822Z,75
2019-01-13T12:16:10.825Z,75
2019-01-13T12:17:10.802Z,75
2019-01-13T12:18:10.780Z,65
2019-01-13T12:19:10.779Z,55
2019-01-13T12:20:10.776Z,60
2019-01-13T12:21:10.751Z,45
2019-01-13T12:22:10.742Z,40
2019-01-13T12:23:10.737Z,50
2019-01-13T12:24:10.718Z,70
2019-01-13T12:25:10.702Z,75
2019-01-13T12:26:10.693Z,90
2019-01-13T12:27:10.679Z,75
2019-01-13T12:28:10.667Z,75
2019-01-13T12:29:10.656Z,70
2019-01-13T12:30:10.662Z,60
2019-01-13T12:31:10.639Z,55
2019-01-13T12:32:10.629Z,60
2019-01-13T12:33:10.623Z,55
2019-01-13T12:34:10.600Z,65
2019-01-13T12:35:10.587Z,70
2019-01-13T12:36:10.335Z,75
2019-01-13T12:37:10.962Z,65
2019-01-13T12:38:10.554Z,60
2019-01-13T12:39:10.549Z,75
2019-01-13T12:40:10.540Z,75
2019-01-13T12:41:10.523Z,65
2019-01-13T12:42:10.274Z,60
2019-01-13T12:43:10.501Z,70
2019-01-13T12:44:10.613Z,65
2019-01-13T12:45:10.470Z,75
2019-01-13T12:46:11.495Z,70
2019-01-13T12:47:10.451Z,75
2019-01-13T12:48:10.445Z,70
2019-01-13T12:49:10.430Z,80
2019-01-13T12:50:10.425Z,70
2019-01-13T12:51:10.416Z,65
2019-01-13T12:52:10.162Z,70
2019-01-13T12:53:10.387Z,70
2019-01-13T12:54:10.372Z,65
2019-01-13T12:55:10.365Z,70
2019-01-13T12:56:10.098Z,60
2019-01-13T12:57:10.333Z,70
2019-01-13T12:58:10.086Z,80
2019-01-13T12:59:10.315Z,75
2019-01-13T13:00:10.297Z,75
2019-01-13T13:01:10.284Z,70
2019-01-13T13:02:10.281Z,80
2019-01-13T13:03:10.273Z,60
2019-01-13T13:04:10.252Z,70
2019-01-13T13:05:10.249Z,65
2019-01-13T13:06:10.237Z,65
2019-01-13T13:07:10.219Z,70
2019-01-13T13:08:10.208Z,60
2019-01-13T13:09:10.203Z,60
2019-01-13T13:10:10.189Z,65
2019-01-13T13:11:10.173Z,65
2019-01-13T13:12:10.155Z,60
2019-01-13T13:13:10.144Z,55
2019-01-13T13:14:09.904Z,50
2019-01-13T13:15:10.139Z,45
2019-01-13T13:16:10.116Z,40
2019-01-13T13:17:10.098Z,35
2019-01-13T13:18:10.104Z,35
2019-01-13T13:19:10.074Z,30
2019-01-13T13:20:10.068Z,35
2019-01-13T13:21:10.056Z,30
2019-01-13T13:22:10.040Z,25
2019-01-13T13:23:11.462Z,25
2019-01-13T13:24:10.023Z,25
2019-01-13T13:25:10.016Z,20
2019-01-13T13:26:09.995Z,25
2019-01-13T13:27:09.980Z,25
2019-01-13T13:28:09.976Z,25
2019-01-13T13:29:09.958Z,25
2019-01-13T13:30:09.947Z,25
2019-01-13T13:31:09.939Z,25
2019-01-13T13:32:09.959Z,20
2019-01-13T13:33:09.937Z,20
2019-01-13T13:34:09.898Z,20
2019-01-13T13:35:09.895Z,15
2019-01-13T13:36:09.878Z,15
2019-01-13T13:37:09.868Z,15
2019-01-13T13:38:09.620Z,15
2019-01-13T13:39:09.844Z,15
2019-01-13T13:40:09.833Z,15
2019-01-13T13:41:09.827Z,15
2019-01-13T13:42:09.809Z,10
2019-01-13T13:43:09.800Z,15
2019-01-13T13:44:09.787Z,15
2019-01-13T13:45:09.781Z,15
2019-01-13T13:46:09.811Z,15
2019-01-13T13:47:09.753Z,15
2019-01-13T13:48:09.764Z,20
2019-01-13T13:49:09.722Z,20
2019-01-13T13:50:09.710Z,25
2019-01-13T13:51:09.698Z,25
2019-01-13T13:52:09.691Z,25
2019-01-13T13:53:09.676Z,20
2019-01-13T13:54:09.665Z,20
2019-01-13T13:55:09.656Z,25
2019-01-13T13:56:09.642Z,25
2019-01-13T13:57:09.626Z,25
2019-01-13T13:58:09.623Z,25
2019-01-13T13:59:09.614Z,25
2019-01-13T14:00:09.595Z,25
2019-01-13T14:01:09.580Z,25
2019-01-13T14:02:09.569Z,30
2019-01-13T14:03:09.559Z,35
2019-01-13T14:04:09.544Z,30
2019-01-13T14:05:10.928Z,30
2019-01-13T14:06:09.521Z,40
2019-01-13T14:07:09.511Z,35
2019-01-13T14:08:09.502Z,30
2019-01-13T14:09:09.490Z,35
2019-01-13T14:10:09.343Z,30
2019-01-13T14:11:09.470Z,25
2019-01-13T14:12:09.456Z,20
2019-01-13T14:13:09.436Z,20
2019-01-13T14:14:09.436Z,20
2019-01-13T14:15:09.414Z,20
2019-01-13T14:16:09.405Z,20
2019-01-13T14:17:09.405Z,20
2019-01-13T14:18:09.385Z,15
2019-01-13T14:19:09.369Z,15
2019-01-13T14:20:09.367Z,20
2019-01-13T14:21:09.350Z,25
2019-01-13T14:22:09.105Z,20
2019-01-13T14:23:09.325Z,20
2019-01-13T14:24:09.377Z,20
2019-01-13T14:25:09.298Z,20
2019-01-13T14:26:09.320Z,20
2019-01-13T14:27:09.278Z,20
2019-01-13T14:28:09.279Z,20
2019-01-13T14:29:09.247Z,15